Tardigrade — WDJ4842 — position and weather

sailwx.info

Track history (hours):
 
Tides and Currents Weather Stations Pressure Air Temp Water Temp Dewpoint Dewpoint Depression Visibility Wind Speed Wind Dir Waves Ship Positions

Tardigrade

Owner: Ellermann, Trevor R, Walnut, CA. More information available from US FCC via Universal Licensing System and Coast Guard Vessel Documentation Center.

Last reported at 2017-Nov-19 22:00 UTC. Time now 2017-Nov-20 11:58 UTC.
Position N 35°55' W 121°48'.

Length 13 m.

Type: Sailing vessel. MMSI: 367781670.

Date/timePositionNaut miles runAvg speedWind from/ knotsBaromVisibWave heightAir tempDewpointWater temp
2017-Nov-19 22:00N 35°55' W 121°48'3 5.1
2017-Nov-19 21:29N 35°56' W 121°51'3 4.0
2017-Nov-19 20:38N 35°58' W 121°55'1 3.5
2017-Nov-19 20:29N 35°59' W 121°55'2 4.0
2017-Nov-19 19:59N 36°00' W 121°56'2 4.3
2017-Nov-19 19:30N 36°02' W 121°58'2 4.3
2017-Nov-19 18:58N 36°03' W 121°60'2 4.4
2017-Nov-19 18:29N 36°05' W 122°01'2 4.0
2017-Nov-19 17:59N 36°07' W 122°02'2 4.1
2017-Nov-19 17:30N 36°09' W 122°04'2 4.4
2017-Nov-19 17:00N 36°10' W 122°05'2 4.1
2017-Nov-19 16:30N 36°12' W 122°07'2 4.6
2017-Nov-19 16:00N 36°14' W 122°09'95 5.0
2017-Nov-18 20:48N 37°47' W 122°31'2 6.5
2017-Nov-18 20:30N 37°49' W 122°30'3 6.0
2017-Nov-18 20:00N 37°49' W 122°26'3 5.6
2017-Nov-18 19:29N 37°48' W 122°22'3 5.7
2017-Nov-18 18:59N 37°48' W 122°19'2 2.3
2017-Nov-18 18:10N 37°48' W 122°17'0 0.0
2017-Nov-18 17:58N 37°48' W 122°17'0 0.0
2017-Nov-18 17:16N 37°48' W 122°17'0 0.0
2017-Nov-18 14:57N 37°48' W 122°17'0 0.0
2017-Nov-18 14:21N 37°48' W 122°17'0 0.0
2017-Nov-18 14:00N 37°48' W 122°17'0 0.0
2017-Nov-18 13:21N 37°48' W 122°17'0 0.0
2017-Nov-18 12:54N 37°48' W 122°17'0 0.0
2017-Nov-18 12:27N 37°48' W 122°17'0 0.0
2017-Nov-18 12:00N 37°48' W 122°17'0 0.0
2017-Nov-18 11:15N 37°48' W 122°17'0 0.0
2017-Nov-18 10:57N 37°48' W 122°17'0 0.0
2017-Nov-18 10:09N 37°48' W 122°17'0 0.0
2017-Nov-18 09:57N 37°48' W 122°17'0 0.0
2017-Nov-18 09:24N 37°48' W 122°17'0 0.0
2017-Nov-18 09:00N 37°48' W 122°17'0 0.0
2017-Nov-18 08:30N 37°48' W 122°17'0 0.0
2017-Nov-18 05:57N 37°48' W 122°17'0 0.0
2017-Nov-18 05:27N 37°48' W 122°17'0 0.0
2017-Nov-18 05:00N 37°48' W 122°17'0 0.0
2017-Nov-18 04:21N 37°48' W 122°17'0 0.0
2017-Nov-18 03:57N 37°48' W 122°17'0 0.0
2017-Nov-18 03:24N 37°48' W 122°17'0 0.0
2017-Nov-18 03:00N 37°48' W 122°17'0 0.0
2017-Nov-18 00:03N 37°48' W 122°17'0 0.0
2017-Nov-17 23:51N 37°48' W 122°17'0 0.0
2017-Nov-17 23:09N 37°48' W 122°17'0 0.0
2017-Nov-17 22:57N 37°48' W 122°17'0 0.0
2017-Nov-17 22:30N 37°48' W 122°17'0 0.0
2017-Nov-17 21:48N 37°48' W 122°17'0 0.0
2017-Nov-17 21:18N 37°48' W 122°17'0 0.0
2017-Nov-17 21:00N 37°48' W 122°17'0 0.0
2017-Nov-17 20:27N 37°48' W 122°17'0 0.1
2017-Nov-17 19:49N 37°48' W 122°17'0 0.0
2017-Nov-17 01:39N 37°48' W 122°17'0 0.0
2017-Nov-17 01:12N 37°48' W 122°17'0 0.0
2017-Nov-17 00:54N 37°48' W 122°17'0 0.0
2017-Nov-16 23:33N 37°48' W 122°17'0 0.0
2017-Nov-16 23:31N 37°48' W 122°17'0 0.0
2017-Nov-16 22:52N 37°48' W 122°17'0 0.0
2017-Nov-16 22:16N 37°48' W 122°17'0 0.0
2017-Nov-16 09:47N 37°48' W 122°17'0 0.0
2017-Nov-15 11:26N 37°48' W 122°17'0 0.0
2017-Nov-15 10:59N 37°48' W 122°17'0 0.0
2017-Nov-14 06:41N 37°48' W 122°17'5 0.2
2017-Nov-13 02:00N 37°49' W 122°22'0 0.0
2017-Nov-13 01:27N 37°49' W 122°22'0 0.0
2017-Nov-13 01:00N 37°49' W 122°22'0 0.0
2017-Nov-13 00:27N 37°49' W 122°22'0 0.0
2017-Nov-12 23:51N 37°49' W 122°22'0 0.0
2017-Nov-12 23:21N 37°49' W 122°22'0 0.0
2017-Nov-12 22:54N 37°49' W 122°22'0 0.0
2017-Nov-12 22:30N 37°49' W 122°22'0 0.0
2017-Nov-12 22:00N 37°49' W 122°22'0 0.0
2017-Nov-12 21:27N 37°49' W 122°22'0 0.0
2017-Nov-12 20:57N 37°49' W 122°22'0 0.0
2017-Nov-12 20:30N 37°49' W 122°22'0 0.0
2017-Nov-12 20:00N 37°49' W 122°22'0 0.0
2017-Nov-12 19:30N 37°49' W 122°22'0 0.0
2017-Nov-12 19:00N 37°49' W 122°22'0 0.0
2017-Nov-12 18:30N 37°49' W 122°22'0 0.0
2017-Nov-12 18:00N 37°49' W 122°22'0 0.0
2017-Nov-12 17:30N 37°49' W 122°22'0 0.0
2017-Nov-12 17:00N 37°49' W 122°22'0 0.0
2017-Nov-12 16:30N 37°49' W 122°22'0 0.0
2017-Nov-12 16:00N 37°49' W 122°22'0 0.0
2017-Nov-12 15:30N 37°49' W 122°22'0 0.0
2017-Nov-12 15:00N 37°49' W 122°22'0 0.0
2017-Nov-12 14:12N 37°49' W 122°22'0 0.0
2017-Nov-12 14:00N 37°49' W 122°22'0 0.0
2017-Nov-12 13:30N 37°49' W 122°22'0 0.0
2017-Nov-12 13:00N 37°49' W 122°22'0 0.0
2017-Nov-12 12:30N 37°49' W 122°22'0 0.0
2017-Nov-12 12:00N 37°49' W 122°22'0 0.0
2017-Nov-12 11:30N 37°49' W 122°22'0 0.0
2017-Nov-12 10:54N 37°49' W 122°22'0 0.0
2017-Nov-12 10:30N 37°49' W 122°22'0 0.0
2017-Nov-12 09:57N 37°49' W 122°22'0 0.0
2017-Nov-12 09:30N 37°49' W 122°22'0 0.0
2017-Nov-12 08:57N 37°49' W 122°22'0 0.0
2017-Nov-12 08:27N 37°49' W 122°22'0 0.0
2017-Nov-12 08:00N 37°49' W 122°22'0 0.0
2017-Nov-12 07:27N 37°49' W 122°22'0 0.0
2017-Nov-12 07:00N 37°49' W 122°22'0 0.0
2017-Nov-12 06:30N 37°49' W 122°22'0 0.0
2017-Nov-12 05:54N 37°49' W 122°22'0 0.0
2017-Nov-12 05:27N 37°49' W 122°22'0 0.0
2017-Nov-12 05:00N 37°49' W 122°22'0 0.0
2017-Nov-12 04:27N 37°49' W 122°22'0 0.0
2017-Nov-12 04:00N 37°49' W 122°22'0 0.0
2017-Nov-12 03:24N 37°49' W 122°22'0 0.0
2017-Nov-12 03:00N 37°49' W 122°22'0 0.0
2017-Nov-12 02:30N 37°49' W 122°22'0 0.0
2017-Nov-12 02:00N 37°49' W 122°22'0 0.0
2017-Nov-12 01:27N 37°49' W 122°22'0 0.0
2017-Nov-12 01:00N 37°49' W 122°22'0 0.0
2017-Nov-12 00:30N 37°49' W 122°22'0 0.0
2017-Nov-11 23:51N 37°49' W 122°22'0 0.0
2017-Nov-11 23:27N 37°49' W 122°22'0 0.0
2017-Nov-11 23:00N 37°49' W 122°22'0 0.0
2017-Nov-11 22:27N 37°49' W 122°22'0 0.0
2017-Nov-11 22:00N 37°49' W 122°22'0 0.0
2017-Nov-11 21:30N 37°49' W 122°22'0 0.0
2017-Nov-11 21:00N 37°49' W 122°22'0 0.0
2017-Nov-11 20:27N 37°49' W 122°22'0 0.0
2017-Nov-11 19:57N 37°49' W 122°22'0 0.0
2017-Nov-11 19:30N 37°49' W 122°22'0 0.0
2017-Nov-11 18:57N 37°49' W 122°22'0 0.0
2017-Nov-11 18:24N 37°49' W 122°22'0 0.0
2017-Nov-11 17:57N 37°49' W 122°22'0 0.0
2017-Nov-11 17:27N 37°49' W 122°22'0 0.0
2017-Nov-11 17:00N 37°49' W 122°22'0 0.0
2017-Nov-11 16:21N 37°49' W 122°22'0 0.0
2017-Nov-11 15:57N 37°49' W 122°22'0 0.0
2017-Nov-11 15:30N 37°49' W 122°22'0 0.0
2017-Nov-11 14:57N 37°49' W 122°22'0 0.0
2017-Nov-11 14:29N 37°49' W 122°22'0 0.0
2017-Nov-11 13:59N 37°49' W 122°22'0 0.0
2017-Nov-11 13:29N 37°49' W 122°22'0 0.0
2017-Nov-11 12:59N 37°49' W 122°22'0 0.0
2017-Nov-11 12:26N 37°49' W 122°22'0 0.0
2017-Nov-11 11:50N 37°49' W 122°22'0 0.0
2017-Nov-11 11:29N 37°49' W 122°22'0 0.0
2017-Nov-11 10:59N 37°49' W 122°22'0 0.0
2017-Nov-11 10:29N 37°49' W 122°22'0 0.0
2017-Nov-11 09:56N 37°49' W 122°22'0 0.0
2017-Nov-11 09:29N 37°49' W 122°22'0 0.0
2017-Nov-11 08:59N 37°49' W 122°22'0 0.0
2017-Nov-11 08:26N 37°49' W 122°22'0 0.0
2017-Nov-11 07:59N 37°49' W 122°22'0 0.0
2017-Nov-11 07:14N 37°49' W 122°22'0 0.0
2017-Nov-11 06:56N 37°49' W 122°22'0 0.0
2017-Nov-11 06:26N 37°49' W 122°22'0 0.0
2017-Nov-11 05:59N 37°49' W 122°22'0 0.0
2017-Nov-11 05:29N 37°49' W 122°22'0 0.0
2017-Nov-11 04:59N 37°49' W 122°22'0 0.0
2017-Nov-11 04:26N 37°49' W 122°22'0 0.0
2017-Nov-11 03:59N 37°49' W 122°22'0 0.0
2017-Nov-11 03:29N 37°49' W 122°22'0 0.0
2017-Nov-11 02:59N 37°49' W 122°22'0 0.0
2017-Nov-11 02:26N 37°49' W 122°22'0 0.0
2017-Nov-11 01:50N 37°49' W 122°22'0 0.0
2017-Nov-11 01:29N 37°49' W 122°22'0 0.0
2017-Nov-11 00:56N 37°49' W 122°22'1 3.0
2017-Nov-11 00:28N 37°48' W 122°21'3 5.6
2017-Nov-11 00:00N 37°48' W 122°17'1 0.1
2017-Nov-10 15:52N 37°48' W 122°17'0 0.0
2017-Nov-10 15:28N 37°48' W 122°17'0 0.0
2017-Nov-10 14:49N 37°48' W 122°17'0 0.0
2017-Nov-10 14:01N 37°48' W 122°17'0 0.0
2017-Nov-10 13:55N 37°48' W 122°17'0 0.0
2017-Nov-10 13:19N 37°48' W 122°17'0 0.0
2017-Nov-10 12:55N 37°48' W 122°17'0 0.0
2017-Nov-10 12:13N 37°48' W 122°17'0 0.0
2017-Nov-10 11:43N 37°48' W 122°17'0 0.0
2017-Nov-10 11:25N 37°48' W 122°17'0 0.0
2017-Nov-10 10:55N 37°48' W 122°17'0 0.0
2017-Nov-10 10:25N 37°48' W 122°17'0 0.0
2017-Nov-10 09:55N 37°48' W 122°17'0 0.0
2017-Nov-10 09:28N 37°48' W 122°17'0 0.0
2017-Nov-10 08:58N 37°48' W 122°17'0 0.0
2017-Nov-10 08:28N 37°48' W 122°17'0 0.0
2017-Nov-10 07:55N 37°48' W 122°17'0 0.0
2017-Nov-10 07:25N 37°48' W 122°17'0 0.0
2017-Nov-10 06:55N 37°48' W 122°17'0 0.0
2017-Nov-10 06:19N 37°48' W 122°17'0 0.0
2017-Nov-10 05:37N 37°48' W 122°17'0 0.0
2017-Nov-10 05:13N 37°48' W 122°17'0 0.0
2017-Nov-10 04:07N 37°48' W 122°17'0 0.0
2017-Nov-10 03:58N 37°48' W 122°17'0 0.0
2017-Nov-10 02:04N 37°48' W 122°17'0 0.0
2017-Nov-10 01:49N 37°48' W 122°17'  
Track history (hours):
 
Tides and Currents Weather Stations Pressure Air Temp Water Temp Dewpoint Dewpoint Depression Visibility Wind Speed Wind Dir Waves Ship Positions

Tardigrade

Owner: Ellermann, Trevor R, Walnut, CA. More information available from US FCC via Universal Licensing System and Coast Guard Vessel Documentation Center.

Last reported at 2017-Nov-19 22:00 UTC. Time now 2017-Nov-20 11:58 UTC.
Position N 35°55' W 121°48'.

Length 13 m.

Type: Sailing vessel. MMSI: 367781670.

Date/timePositionNaut miles runAvg speedWind from/ knotsBaromVisibWave heightAir tempDewpointWater temp
2017-Nov-19 22:00N 35°55' W 121°48'3 5.1
2017-Nov-19 21:29N 35°56' W 121°51'3 4.0
2017-Nov-19 20:38N 35°58' W 121°55'1 3.5
2017-Nov-19 20:29N 35°59' W 121°55'2 4.0
2017-Nov-19 19:59N 36°00' W 121°56'2 4.3
2017-Nov-19 19:30N 36°02' W 121°58'2 4.3
2017-Nov-19 18:58N 36°03' W 121°60'2 4.4
2017-Nov-19 18:29N 36°05' W 122°01'2 4.0
2017-Nov-19 17:59N 36°07' W 122°02'2 4.1
2017-Nov-19 17:30N 36°09' W 122°04'2 4.4
2017-Nov-19 17:00N 36°10' W 122°05'2 4.1
2017-Nov-19 16:30N 36°12' W 122°07'2 4.6
2017-Nov-19 16:00N 36°14' W 122°09'95 5.0
2017-Nov-18 20:48N 37°47' W 122°31'2 6.5
2017-Nov-18 20:30N 37°49' W 122°30'3 6.0
2017-Nov-18 20:00N 37°49' W 122°26'3 5.6
2017-Nov-18 19:29N 37°48' W 122°22'3 5.7
2017-Nov-18 18:59N 37°48' W 122°19'2 2.3
2017-Nov-18 18:10N 37°48' W 122°17'0 0.0
2017-Nov-18 17:58N 37°48' W 122°17'0 0.0
2017-Nov-18 17:16N 37°48' W 122°17'0 0.0
2017-Nov-18 14:57N 37°48' W 122°17'0 0.0
2017-Nov-18 14:21N 37°48' W 122°17'0 0.0
2017-Nov-18 14:00N 37°48' W 122°17'0 0.0
2017-Nov-18 13:21N 37°48' W 122°17'0 0.0
2017-Nov-18 12:54N 37°48' W 122°17'0 0.0
2017-Nov-18 12:27N 37°48' W 122°17'0 0.0
2017-Nov-18 12:00N 37°48' W 122°17'0 0.0
2017-Nov-18 11:15N 37°48' W 122°17'0 0.0
2017-Nov-18 10:57N 37°48' W 122°17'0 0.0
2017-Nov-18 10:09N 37°48' W 122°17'0 0.0
2017-Nov-18 09:57N 37°48' W 122°17'0 0.0
2017-Nov-18 09:24N 37°48' W 122°17'0 0.0
2017-Nov-18 09:00N 37°48' W 122°17'0 0.0
2017-Nov-18 08:30N 37°48' W 122°17'0 0.0
2017-Nov-18 05:57N 37°48' W 122°17'0 0.0
2017-Nov-18 05:27N 37°48' W 122°17'0 0.0
2017-Nov-18 05:00N 37°48' W 122°17'0 0.0
2017-Nov-18 04:21N 37°48' W 122°17'0 0.0
2017-Nov-18 03:57N 37°48' W 122°17'0 0.0
2017-Nov-18 03:24N 37°48' W 122°17'0 0.0
2017-Nov-18 03:00N 37°48' W 122°17'0 0.0
2017-Nov-18 00:03N 37°48' W 122°17'0 0.0
2017-Nov-17 23:51N 37°48' W 122°17'0 0.0
2017-Nov-17 23:09N 37°48' W 122°17'0 0.0
2017-Nov-17 22:57N 37°48' W 122°17'0 0.0
2017-Nov-17 22:30N 37°48' W 122°17'0 0.0
2017-Nov-17 21:48N 37°48' W 122°17'0 0.0
2017-Nov-17 21:18N 37°48' W 122°17'0 0.0
2017-Nov-17 21:00N 37°48' W 122°17'0 0.0
2017-Nov-17 20:27N 37°48' W 122°17'0 0.1
2017-Nov-17 19:49N 37°48' W 122°17'0 0.0
2017-Nov-17 01:39N 37°48' W 122°17'0 0.0
2017-Nov-17 01:12N 37°48' W 122°17'0 0.0
2017-Nov-17 00:54N 37°48' W 122°17'0 0.0
2017-Nov-16 23:33N 37°48' W 122°17'0 0.0
2017-Nov-16 23:31N 37°48' W 122°17'0 0.0
2017-Nov-16 22:52N 37°48' W 122°17'0 0.0
2017-Nov-16 22:16N 37°48' W 122°17'0 0.0
2017-Nov-16 09:47N 37°48' W 122°17'0 0.0
2017-Nov-15 11:26N 37°48' W 122°17'0 0.0
2017-Nov-15 10:59N 37°48' W 122°17'0 0.0
2017-Nov-14 06:41N 37°48' W 122°17'5 0.2
2017-Nov-13 02:00N 37°49' W 122°22'0 0.0
2017-Nov-13 01:27N 37°49' W 122°22'0 0.0
2017-Nov-13 01:00N 37°49' W 122°22'0 0.0
2017-Nov-13 00:27N 37°49' W 122°22'0 0.0
2017-Nov-12 23:51N 37°49' W 122°22'0 0.0
2017-Nov-12 23:21N 37°49' W 122°22'0 0.0
2017-Nov-12 22:54N 37°49' W 122°22'0 0.0
2017-Nov-12 22:30N 37°49' W 122°22'0 0.0
2017-Nov-12 22:00N 37°49' W 122°22'0 0.0
2017-Nov-12 21:27N 37°49' W 122°22'0 0.0
2017-Nov-12 20:57N 37°49' W 122°22'0 0.0
2017-Nov-12 20:30N 37°49' W 122°22'0 0.0
2017-Nov-12 20:00N 37°49' W 122°22'0 0.0
2017-Nov-12 19:30N 37°49' W 122°22'0 0.0
2017-Nov-12 19:00N 37°49' W 122°22'0 0.0
2017-Nov-12 18:30N 37°49' W 122°22'0 0.0
2017-Nov-12 18:00N 37°49' W 122°22'0 0.0
2017-Nov-12 17:30N 37°49' W 122°22'0 0.0
2017-Nov-12 17:00N 37°49' W 122°22'0 0.0
2017-Nov-12 16:30N 37°49' W 122°22'0 0.0
2017-Nov-12 16:00N 37°49' W 122°22'0 0.0
2017-Nov-12 15:30N 37°49' W 122°22'0 0.0
2017-Nov-12 15:00N 37°49' W 122°22'0 0.0
2017-Nov-12 14:12N 37°49' W 122°22'0 0.0
2017-Nov-12 14:00N 37°49' W 122°22'0 0.0
2017-Nov-12 13:30N 37°49' W 122°22'0 0.0
2017-Nov-12 13:00N 37°49' W 122°22'0 0.0
2017-Nov-12 12:30N 37°49' W 122°22'0 0.0
2017-Nov-12 12:00N 37°49' W 122°22'0 0.0
2017-Nov-12 11:30N 37°49' W 122°22'0 0.0
2017-Nov-12 10:54N 37°49' W 122°22'0 0.0
2017-Nov-12 10:30N 37°49' W 122°22'0 0.0
2017-Nov-12 09:57N 37°49' W 122°22'0 0.0
2017-Nov-12 09:30N 37°49' W 122°22'0 0.0
2017-Nov-12 08:57N 37°49' W 122°22'0 0.0
2017-Nov-12 08:27N 37°49' W 122°22'0 0.0
2017-Nov-12 08:00N 37°49' W 122°22'0 0.0
2017-Nov-12 07:27N 37°49' W 122°22'0 0.0
2017-Nov-12 07:00N 37°49' W 122°22'0 0.0
2017-Nov-12 06:30N 37°49' W 122°22'0 0.0
2017-Nov-12 05:54N 37°49' W 122°22'0 0.0
2017-Nov-12 05:27N 37°49' W 122°22'0 0.0
2017-Nov-12 05:00N 37°49' W 122°22'0 0.0
2017-Nov-12 04:27N 37°49' W 122°22'0 0.0
2017-Nov-12 04:00N 37°49' W 122°22'0 0.0
2017-Nov-12 03:24N 37°49' W 122°22'0 0.0
2017-Nov-12 03:00N 37°49' W 122°22'0 0.0
2017-Nov-12 02:30N 37°49' W 122°22'0 0.0
2017-Nov-12 02:00N 37°49' W 122°22'0 0.0
2017-Nov-12 01:27N 37°49' W 122°22'0 0.0
2017-Nov-12 01:00N 37°49' W 122°22'0 0.0
2017-Nov-12 00:30N 37°49' W 122°22'0 0.0
2017-Nov-11 23:51N 37°49' W 122°22'0 0.0
2017-Nov-11 23:27N 37°49' W 122°22'0 0.0
2017-Nov-11 23:00N 37°49' W 122°22'0 0.0
2017-Nov-11 22:27N 37°49' W 122°22'0 0.0
2017-Nov-11 22:00N 37°49' W 122°22'0 0.0
2017-Nov-11 21:30N 37°49' W 122°22'0 0.0
2017-Nov-11 21:00N 37°49' W 122°22'0 0.0
2017-Nov-11 20:27N 37°49' W 122°22'0 0.0
2017-Nov-11 19:57N 37°49' W 122°22'0 0.0
2017-Nov-11 19:30N 37°49' W 122°22'0 0.0
2017-Nov-11 18:57N 37°49' W 122°22'0 0.0
2017-Nov-11 18:24N 37°49' W 122°22'0 0.0
2017-Nov-11 17:57N 37°49' W 122°22'0 0.0
2017-Nov-11 17:27N 37°49' W 122°22'0 0.0
2017-Nov-11 17:00N 37°49' W 122°22'0 0.0
2017-Nov-11 16:21N 37°49' W 122°22'0 0.0
2017-Nov-11 15:57N 37°49' W 122°22'0 0.0
2017-Nov-11 15:30N 37°49' W 122°22'0 0.0
2017-Nov-11 14:57N 37°49' W 122°22'0 0.0
2017-Nov-11 14:29N 37°49' W 122°22'0 0.0
2017-Nov-11 13:59N 37°49' W 122°22'0 0.0
2017-Nov-11 13:29N 37°49' W 122°22'0 0.0
2017-Nov-11 12:59N 37°49' W 122°22'0 0.0
2017-Nov-11 12:26N 37°49' W 122°22'0 0.0
2017-Nov-11 11:50N 37°49' W 122°22'0 0.0
2017-Nov-11 11:29N 37°49' W 122°22'0 0.0
2017-Nov-11 10:59N 37°49' W 122°22'0 0.0
2017-Nov-11 10:29N 37°49' W 122°22'0 0.0
2017-Nov-11 09:56N 37°49' W 122°22'0 0.0
2017-Nov-11 09:29N 37°49' W 122°22'0 0.0
2017-Nov-11 08:59N 37°49' W 122°22'0 0.0
2017-Nov-11 08:26N 37°49' W 122°22'0 0.0
2017-Nov-11 07:59N 37°49' W 122°22'0 0.0
2017-Nov-11 07:14N 37°49' W 122°22'0 0.0
2017-Nov-11 06:56N 37°49' W 122°22'0 0.0
2017-Nov-11 06:26N 37°49' W 122°22'0 0.0
2017-Nov-11 05:59N 37°49' W 122°22'0 0.0
2017-Nov-11 05:29N 37°49' W 122°22'0 0.0
2017-Nov-11 04:59N 37°49' W 122°22'0 0.0
2017-Nov-11 04:26N 37°49' W 122°22'0 0.0
2017-Nov-11 03:59N 37°49' W 122°22'0 0.0
2017-Nov-11 03:29N 37°49' W 122°22'0 0.0
2017-Nov-11 02:59N 37°49' W 122°22'0 0.0
2017-Nov-11 02:26N 37°49' W 122°22'0 0.0
2017-Nov-11 01:50N 37°49' W 122°22'0 0.0
2017-Nov-11 01:29N 37°49' W 122°22'0 0.0
2017-Nov-11 00:56N 37°49' W 122°22'1 3.0
2017-Nov-11 00:28N 37°48' W 122°21'3 5.6
2017-Nov-11 00:00N 37°48' W 122°17'1 0.1
2017-Nov-10 15:52N 37°48' W 122°17'0 0.0
2017-Nov-10 15:28N 37°48' W 122°17'0 0.0
2017-Nov-10 14:49N 37°48' W 122°17'0 0.0
2017-Nov-10 14:01N 37°48' W 122°17'0 0.0
2017-Nov-10 13:55N 37°48' W 122°17'0 0.0
2017-Nov-10 13:19N 37°48' W 122°17'0 0.0
2017-Nov-10 12:55N 37°48' W 122°17'0 0.0
2017-Nov-10 12:13N 37°48' W 122°17'0 0.0
2017-Nov-10 11:43N 37°48' W 122°17'0 0.0
2017-Nov-10 11:25N 37°48' W 122°17'0 0.0
2017-Nov-10 10:55N 37°48' W 122°17'0 0.0
2017-Nov-10 10:25N 37°48' W 122°17'0 0.0
2017-Nov-10 09:55N 37°48' W 122°17'0 0.0
2017-Nov-10 09:28N 37°48' W 122°17'0 0.0
2017-Nov-10 08:58N 37°48' W 122°17'0 0.0
2017-Nov-10 08:28N 37°48' W 122°17'0 0.0
2017-Nov-10 07:55N 37°48' W 122°17'0 0.0
2017-Nov-10 07:25N 37°48' W 122°17'0 0.0
2017-Nov-10 06:55N 37°48' W 122°17'0 0.0
2017-Nov-10 06:19N 37°48' W 122°17'0 0.0
2017-Nov-10 05:37N 37°48' W 122°17'0 0.0
2017-Nov-10 05:13N 37°48' W 122°17'0 0.0
2017-Nov-10 04:07N 37°48' W 122°17'0 0.0
2017-Nov-10 03:58N 37°48' W 122°17'0 0.0
2017-Nov-10 02:04N 37°48' W 122°17'0 0.0
2017-Nov-10 01:49N 37°48' W 122°17'  

Dump ship's entire track history